sensor_id;sensor_type;location;lat;lon;timestamp;P1;durP1;ratioP1;P2;durP2;ratioP2
53833;SDS011;39735;51.432;5.482;2023-07-31T00:00:54;36.63;;;10.18;;
53833;SDS011;39735;51.432;5.482;2023-07-31T00:03:20;19.50;;;7.32;;
53833;SDS011;39735;51.432;5.482;2023-07-31T00:05:45;35.30;;;9.18;;
53833;SDS011;39735;51.432;5.482;2023-07-31T00:08:10;36.47;;;8.00;;
53833;SDS011;39735;51.432;5.482;2023-07-31T00:10:35;30.47;;;9.50;;
53833;SDS011;39735;51.432;5.482;2023-07-31T00:13:00;29.73;;;9.03;;
53833;SDS011;39735;51.432;5.482;2023-07-31T00:15:26;35.10;;;9.30;;
53833;SDS011;39735;51.432;5.482;2023-07-31T00:17:51;27.50;;;8.30;;
53833;SDS011;39735;51.432;5.482;2023-07-31T00:20:16;37.50;;;9.50;;
53833;SDS011;39735;51.432;5.482;2023-07-31T00:22:42;38.17;;;8.65;;
53833;SDS011;39735;51.432;5.482;2023-07-31T00:25:07;29.80;;;6.97;;
53833;SDS011;39735;51.432;5.482;2023-07-31T00:27:32;17.73;;;7.40;;
53833;SDS011;39735;51.432;5.482;2023-07-31T00:29:58;19.80;;;6.68;;
53833;SDS011;39735;51.432;5.482;2023-07-31T00:32:23;30.58;;;8.23;;
53833;SDS011;39735;51.432;5.482;2023-07-31T00:34:48;31.73;;;9.30;;
53833;SDS011;39735;51.432;5.482;2023-07-31T00:37:13;28.00;;;7.43;;
53833;SDS011;39735;51.432;5.482;2023-07-31T00:39:40;17.08;;;6.53;;
53833;SDS011;39735;51.432;5.482;2023-07-31T00:42:05;23.10;;;7.50;;
53833;SDS011;39735;51.432;5.482;2023-07-31T00:44:30;21.08;;;6.35;;
53833;SDS011;39735;51.432;5.482;2023-07-31T00:46:56;21.23;;;7.22;;
53833;SDS011;39735;51.432;5.482;2023-07-31T00:49:23;14.23;;;6.45;;
53833;SDS011;39735;51.432;5.482;2023-07-31T00:51:48;33.63;;;9.15;;
53833;SDS011;39735;51.432;5.482;2023-07-31T00:54:13;30.80;;;6.65;;
53833;SDS011;39735;51.432;5.482;2023-07-31T00:56:39;24.98;;;7.15;;
53833;SDS011;39735;51.432;5.482;2023-07-31T00:59:05;37.90;;;7.60;;
53833;SDS011;39735;51.432;5.482;2023-07-31T01:01:30;25.13;;;6.75;;
53833;SDS011;39735;51.432;5.482;2023-07-31T01:03:56;22.57;;;6.40;;
53833;SDS011;39735;51.432;5.482;2023-07-31T01:06:28;30.92;;;7.32;;
53833;SDS011;39735;51.432;5.482;2023-07-31T01:11:28;20.83;;;6.47;;
53833;SDS011;39735;51.432;5.482;2023-07-31T01:13:54;21.77;;;5.90;;
53833;SDS011;39735;51.432;5.482;2023-07-31T01:16:20;33.70;;;7.25;;
53833;SDS011;39735;51.432;5.482;2023-07-31T01:18:45;29.80;;;8.13;;
53833;SDS011;39735;51.432;5.482;2023-07-31T01:26:37;12.20;;;5.50;;
53833;SDS011;39735;51.432;5.482;2023-07-31T01:29:07;21.23;;;7.43;;
53833;SDS011;39735;51.432;5.482;2023-07-31T01:31:33;18.95;;;6.35;;
53833;SDS011;39735;51.432;5.482;2023-07-31T01:34:01;19.50;;;7.53;;
53833;SDS011;39735;51.432;5.482;2023-07-31T01:36:27;25.38;;;5.90;;
53833;SDS011;39735;51.432;5.482;2023-07-31T01:38:57;26.65;;;7.18;;
53833;SDS011;39735;51.432;5.482;2023-07-31T01:41:24;18.25;;;6.63;;
53833;SDS011;39735;51.432;5.482;2023-07-31T01:43:49;31.60;;;8.00;;
53833;SDS011;39735;51.432;5.482;2023-07-31T01:46:14;31.42;;;7.13;;
53833;SDS011;39735;51.432;5.482;2023-07-31T01:48:39;34.23;;;6.33;;
53833;SDS011;39735;51.432;5.482;2023-07-31T01:51:04;25.73;;;7.90;;
53833;SDS011;39735;51.432;5.482;2023-07-31T01:53:30;28.90;;;7.38;;
53833;SDS011;39735;51.432;5.482;2023-07-31T01:55:56;29.15;;;7.40;;
53833;SDS011;39735;51.432;5.482;2023-07-31T01:58:21;40.43;;;7.80;;
53833;SDS011;39735;51.432;5.482;2023-07-31T02:00:46;24.87;;;6.80;;
53833;SDS011;39735;51.432;5.482;2023-07-31T02:03:11;24.00;;;6.47;;
53833;SDS011;39735;51.432;5.482;2023-07-31T02:05:43;33.83;;;6.47;;
53833;SDS011;39735;51.432;5.482;2023-07-31T02:08:08;23.33;;;6.88;;
53833;SDS011;39735;51.432;5.482;2023-07-31T02:10:34;34.97;;;5.97;;
53833;SDS011;39735;51.432;5.482;2023-07-31T02:12:59;28.38;;;7.45;;
53833;SDS011;39735;51.432;5.482;2023-07-31T02:15:24;31.25;;;6.95;;
53833;SDS011;39735;51.432;5.482;2023-07-31T02:17:49;30.77;;;6.33;;
53833;SDS011;39735;51.432;5.482;2023-07-31T02:20:15;27.15;;;7.28;;
53833;SDS011;39735;51.432;5.482;2023-07-31T02:22:40;32.75;;;7.82;;
53833;SDS011;39735;51.432;5.482;2023-07-31T02:25:06;36.95;;;9.45;;
53833;SDS011;39735;51.432;5.482;2023-07-31T02:27:31;20.30;;;7.45;;
53833;SDS011;39735;51.432;5.482;2023-07-31T02:29:57;27.13;;;6.35;;
53833;SDS011;39735;51.432;5.482;2023-07-31T02:32:24;25.48;;;6.90;;
53833;SDS011;39735;51.432;5.482;2023-07-31T02:34:49;27.13;;;7.90;;
53833;SDS011;39735;51.432;5.482;2023-07-31T02:37:14;24.77;;;6.47;;
53833;SDS011;39735;51.432;5.482;2023-07-31T02:39:40;27.65;;;7.95;;
53833;SDS011;39735;51.432;5.482;2023-07-31T02:42:05;27.80;;;7.78;;
53833;SDS011;39735;51.432;5.482;2023-07-31T02:44:30;23.83;;;7.95;;
53833;SDS011;39735;51.432;5.482;2023-07-31T02:46:55;28.20;;;6.60;;
53833;SDS011;39735;51.432;5.482;2023-07-31T02:49:21;34.35;;;8.60;;
53833;SDS011;39735;51.432;5.482;2023-07-31T02:51:46;28.58;;;7.03;;
53833;SDS011;39735;51.432;5.482;2023-07-31T02:54:11;35.97;;;8.30;;
53833;SDS011;39735;51.432;5.482;2023-07-31T02:56:36;27.98;;;7.75;;
53833;SDS011;39735;51.432;5.482;2023-07-31T02:59:02;38.95;;;7.10;;
53833;SDS011;39735;51.432;5.482;2023-07-31T03:01:27;34.35;;;8.43;;
53833;SDS011;39735;51.432;5.482;2023-07-31T03:03:52;47.92;;;8.60;;
53833;SDS011;39735;51.432;5.482;2023-07-31T03:06:18;50.20;;;8.38;;
53833;SDS011;39735;51.432;5.482;2023-07-31T03:08:43;35.53;;;8.18;;
53833;SDS011;39735;51.432;5.482;2023-07-31T03:11:08;34.25;;;7.05;;
53833;SDS011;39735;51.432;5.482;2023-07-31T03:13:33;43.92;;;8.35;;
53833;SDS011;39735;51.432;5.482;2023-07-31T03:15:59;28.23;;;7.03;;
53833;SDS011;39735;51.432;5.482;2023-07-31T03:18:24;47.92;;;8.02;;
53833;SDS011;39735;51.432;5.482;2023-07-31T03:20:49;48.25;;;9.27;;
53833;SDS011;39735;51.432;5.482;2023-07-31T03:23:14;26.83;;;8.43;;
53833;SDS011;39735;51.432;5.482;2023-07-31T03:25:41;37.13;;;9.27;;
53833;SDS011;39735;51.432;5.482;2023-07-31T03:28:06;32.05;;;7.75;;
53833;SDS011;39735;51.432;5.482;2023-07-31T03:30:32;48.55;;;5.97;;
53833;SDS011;39735;51.432;5.482;2023-07-31T03:32:57;39.78;;;9.85;;
53833;SDS011;39735;51.432;5.482;2023-07-31T03:35:22;23.67;;;6.80;;
53833;SDS011;39735;51.432;5.482;2023-07-31T03:37:47;30.53;;;6.63;;
53833;SDS011;39735;51.432;5.482;2023-07-31T03:40:13;20.53;;;6.87;;
53833;SDS011;39735;51.432;5.482;2023-07-31T03:42:38;28.08;;;7.60;;
53833;SDS011;39735;51.432;5.482;2023-07-31T03:45:03;42.67;;;7.88;;
53833;SDS011;39735;51.432;5.482;2023-07-31T03:47:29;31.05;;;6.55;;
53833;SDS011;39735;51.432;5.482;2023-07-31T03:49:54;31.83;;;7.53;;
53833;SDS011;39735;51.432;5.482;2023-07-31T03:52:19;35.30;;;7.43;;
53833;SDS011;39735;51.432;5.482;2023-07-31T03:54:44;26.43;;;5.63;;
53833;SDS011;39735;51.432;5.482;2023-07-31T03:57:10;46.83;;;11.30;;
53833;SDS011;39735;51.432;5.482;2023-07-31T03:59:36;24.23;;;6.20;;
53833;SDS011;39735;51.432;5.482;2023-07-31T04:02:03;27.90;;;7.97;;
53833;SDS011;39735;51.432;5.482;2023-07-31T04:04:28;30.77;;;7.28;;
53833;SDS011;39735;51.432;5.482;2023-07-31T04:06:54;40.20;;;6.85;;
53833;SDS011;39735;51.432;5.482;2023-07-31T04:09:19;26.80;;;6.97;;
53833;SDS011;39735;51.432;5.482;2023-07-31T04:11:44;47.00;;;10.02;;
53833;SDS011;39735;51.432;5.482;2023-07-31T04:14:09;30.05;;;8.07;;
53833;SDS011;39735;51.432;5.482;2023-07-31T04:16:35;22.03;;;7.10;;
53833;SDS011;39735;51.432;5.482;2023-07-31T04:19:00;27.38;;;7.03;;
53833;SDS011;39735;51.432;5.482;2023-07-31T04:21:25;41.40;;;10.95;;
53833;SDS011;39735;51.432;5.482;2023-07-31T04:23:50;21.40;;;6.45;;
53833;SDS011;39735;51.432;5.482;2023-07-31T04:26:16;30.77;;;7.53;;
53833;SDS011;39735;51.432;5.482;2023-07-31T04:28:41;22.00;;;5.93;;
53833;SDS011;39735;51.432;5.482;2023-07-31T04:31:06;15.82;;;7.55;;
53833;SDS011;39735;51.432;5.482;2023-07-31T04:33:32;31.83;;;7.22;;
53833;SDS011;39735;51.432;5.482;2023-07-31T04:35:58;26.23;;;6.53;;
53833;SDS011;39735;51.432;5.482;2023-07-31T04:38:23;31.13;;;6.25;;
53833;SDS011;39735;51.432;5.482;2023-07-31T04:40:49;30.10;;;6.80;;
53833;SDS011;39735;51.432;5.482;2023-07-31T04:43:14;25.60;;;7.43;;
53833;SDS011;39735;51.432;5.482;2023-07-31T04:45:42;18.20;;;5.80;;
53833;SDS011;39735;51.432;5.482;2023-07-31T04:48:07;81.05;;;9.50;;
53833;SDS011;39735;51.432;5.482;2023-07-31T04:50:32;11.85;;;6.43;;
53833;SDS011;39735;51.432;5.482;2023-07-31T04:52:58;15.82;;;6.25;;
53833;SDS011;39735;51.432;5.482;2023-07-31T04:55:23;47.85;;;8.48;;
53833;SDS011;39735;51.432;5.482;2023-07-31T04:57:48;19.42;;;6.68;;
53833;SDS011;39735;51.432;5.482;2023-07-31T05:00:14;24.98;;;5.60;;
53833;SDS011;39735;51.432;5.482;2023-07-31T05:02:39;23.52;;;6.72;;
53833;SDS011;39735;51.432;5.482;2023-07-31T05:05:04;21.55;;;6.20;;
53833;SDS011;39735;51.432;5.482;2023-07-31T05:07:29;20.98;;;5.38;;
53833;SDS011;39735;51.432;5.482;2023-07-31T05:09:55;19.63;;;5.82;;
53833;SDS011;39735;51.432;5.482;2023-07-31T05:12:20;31.67;;;7.15;;
53833;SDS011;39735;51.432;5.482;2023-07-31T05:14:45;35.43;;;8.70;;
53833;SDS011;39735;51.432;5.482;2023-07-31T05:17:10;19.77;;;5.25;;
53833;SDS011;39735;51.432;5.482;2023-07-31T05:19:36;13.88;;;4.55;;
53833;SDS011;39735;51.432;5.482;2023-07-31T05:22:01;7.82;;;4.43;;
53833;SDS011;39735;51.432;5.482;2023-07-31T05:24:26;10.52;;;4.43;;
53833;SDS011;39735;51.432;5.482;2023-07-31T05:26:51;18.48;;;5.57;;
53833;SDS011;39735;51.432;5.482;2023-07-31T05:29:17;17.55;;;5.38;;
53833;SDS011;39735;51.432;5.482;2023-07-31T05:31:42;13.80;;;5.67;;
53833;SDS011;39735;51.432;5.482;2023-07-31T05:34:07;9.45;;;4.97;;
53833;SDS011;39735;51.432;5.482;2023-07-31T05:36:32;23.77;;;5.18;;
53833;SDS011;39735;51.432;5.482;2023-07-31T05:38:58;11.27;;;5.55;;
53833;SDS011;39735;51.432;5.482;2023-07-31T05:41:23;28.63;;;5.32;;
53833;SDS011;39735;51.432;5.482;2023-07-31T05:43:48;20.95;;;4.43;;
53833;SDS011;39735;51.432;5.482;2023-07-31T05:46:13;13.80;;;4.63;;
53833;SDS011;39735;51.432;5.482;2023-07-31T05:48:39;12.70;;;5.25;;
53833;SDS011;39735;51.432;5.482;2023-07-31T05:51:04;10.25;;;4.38;;
53833;SDS011;39735;51.432;5.482;2023-07-31T05:53:29;15.68;;;4.10;;
53833;SDS011;39735;51.432;5.482;2023-07-31T05:55:54;15.90;;;5.03;;
53833;SDS011;39735;51.432;5.482;2023-07-31T05:58:20;6.32;;;3.20;;
53833;SDS011;39735;51.432;5.482;2023-07-31T06:00:45;5.75;;;3.85;;
53833;SDS011;39735;51.432;5.482;2023-07-31T06:03:10;6.25;;;3.67;;
53833;SDS011;39735;51.432;5.482;2023-07-31T06:05:35;6.47;;;3.22;;
53833;SDS011;39735;51.432;5.482;2023-07-31T06:08:01;15.45;;;4.05;;
53833;SDS011;39735;51.432;5.482;2023-07-31T06:10:26;3.72;;;3.08;;
53833;SDS011;39735;51.432;5.482;2023-07-31T06:12:51;6.75;;;3.38;;
53833;SDS011;39735;51.432;5.482;2023-07-31T06:15:17;6.10;;;3.42;;
53833;SDS011;39735;51.432;5.482;2023-07-31T06:17:44;24.85;;;3.83;;
53833;SDS011;39735;51.432;5.482;2023-07-31T06:20:09;23.75;;;4.00;;
53833;SDS011;39735;51.432;5.482;2023-07-31T06:22:35;11.75;;;3.75;;
53833;SDS011;39735;51.432;5.482;2023-07-31T06:25:00;7.10;;;3.90;;
53833;SDS011;39735;51.432;5.482;2023-07-31T06:27:25;10.77;;;2.75;;
53833;SDS011;39735;51.432;5.482;2023-07-31T06:29:50;5.88;;;3.15;;
53833;SDS011;39735;51.432;5.482;2023-07-31T06:32:16;8.30;;;3.38;;
53833;SDS011;39735;51.432;5.482;2023-07-31T06:34:41;9.82;;;4.07;;
53833;SDS011;39735;51.432;5.482;2023-07-31T06:37:06;9.67;;;3.90;;
53833;SDS011;39735;51.432;5.482;2023-07-31T06:39:31;8.87;;;3.53;;
53833;SDS011;39735;51.432;5.482;2023-07-31T06:41:57;3.60;;;3.40;;
53833;SDS011;39735;51.432;5.482;2023-07-31T06:44:22;3.55;;;3.25;;
53833;SDS011;39735;51.432;5.482;2023-07-31T06:46:47;11.23;;;3.97;;
53833;SDS011;39735;51.432;5.482;2023-07-31T06:49:12;8.20;;;5.00;;
53833;SDS011;39735;51.432;5.482;2023-07-31T06:51:40;16.88;;;3.75;;
53833;SDS011;39735;51.432;5.482;2023-07-31T06:54:05;14.65;;;3.75;;
53833;SDS011;39735;51.432;5.482;2023-07-31T06:56:30;20.50;;;3.50;;
53833;SDS011;39735;51.432;5.482;2023-07-31T06:58:55;20.58;;;4.28;;
53833;SDS011;39735;51.432;5.482;2023-07-31T07:01:21;3.10;;;2.22;;
53833;SDS011;39735;51.432;5.482;2023-07-31T07:03:46;5.30;;;2.85;;
53833;SDS011;39735;51.432;5.482;2023-07-31T07:06:11;7.38;;;2.63;;
53833;SDS011;39735;51.432;5.482;2023-07-31T07:08:37;6.22;;;2.85;;
53833;SDS011;39735;51.432;5.482;2023-07-31T07:11:02;12.75;;;4.13;;
53833;SDS011;39735;51.432;5.482;2023-07-31T07:13:27;7.35;;;3.97;;
53833;SDS011;39735;51.432;5.482;2023-07-31T07:15:52;4.38;;;3.50;;
53833;SDS011;39735;51.432;5.482;2023-07-31T07:18:18;7.18;;;3.10;;
53833;SDS011;39735;51.432;5.482;2023-07-31T07:20:47;8.38;;;3.13;;
53833;SDS011;39735;51.432;5.482;2023-07-31T07:23:12;4.32;;;2.97;;
53833;SDS011;39735;51.432;5.482;2023-07-31T07:25:38;7.60;;;2.15;;
53833;SDS011;39735;51.432;5.482;2023-07-31T07:28:03;6.03;;;3.00;;
53833;SDS011;39735;51.432;5.482;2023-07-31T07:30:28;6.30;;;3.13;;
53833;SDS011;39735;51.432;5.482;2023-07-31T07:32:54;8.80;;;2.83;;
53833;SDS011;39735;51.432;5.482;2023-07-31T07:35:19;12.33;;;2.87;;
53833;SDS011;39735;51.432;5.482;2023-07-31T07:37:44;8.90;;;3.03;;
53833;SDS011;39735;51.432;5.482;2023-07-31T07:40:09;3.65;;;3.17;;
53833;SDS011;39735;51.432;5.482;2023-07-31T07:42:35;9.52;;;2.35;;
53833;SDS011;39735;51.432;5.482;2023-07-31T07:45:00;7.95;;;3.08;;
53833;SDS011;39735;51.432;5.482;2023-07-31T07:47:25;4.43;;;2.70;;
53833;SDS011;39735;51.432;5.482;2023-07-31T07:49:50;11.27;;;2.93;;
53833;SDS011;39735;51.432;5.482;2023-07-31T07:52:16;5.78;;;3.67;;
53833;SDS011;39735;51.432;5.482;2023-07-31T07:54:41;17.37;;;3.93;;
53833;SDS011;39735;51.432;5.482;2023-07-31T07:57:06;11.07;;;3.73;;
53833;SDS011;39735;51.432;5.482;2023-07-31T07:59:31;3.67;;;3.38;;
53833;SDS011;39735;51.432;5.482;2023-07-31T08:01:57;7.25;;;4.05;;
53833;SDS011;39735;51.432;5.482;2023-07-31T08:04:22;9.25;;;3.97;;
53833;SDS011;39735;51.432;5.482;2023-07-31T08:06:47;9.48;;;4.95;;
53833;SDS011;39735;51.432;5.482;2023-07-31T08:09:13;11.70;;;3.20;;
53833;SDS011;39735;51.432;5.482;2023-07-31T08:11:38;14.38;;;4.72;;
53833;SDS011;39735;51.432;5.482;2023-07-31T08:14:03;12.88;;;4.70;;
53833;SDS011;39735;51.432;5.482;2023-07-31T08:16:28;10.75;;;4.85;;
53833;SDS011;39735;51.432;5.482;2023-07-31T08:18:54;15.52;;;4.82;;
53833;SDS011;39735;51.432;5.482;2023-07-31T08:21:19;14.88;;;5.00;;
53833;SDS011;39735;51.432;5.482;2023-07-31T08:23:44;15.07;;;5.05;;
53833;SDS011;39735;51.432;5.482;2023-07-31T08:26:16;14.68;;;4.00;;
53833;SDS011;39735;51.432;5.482;2023-07-31T08:28:42;20.55;;;4.32;;
53833;SDS011;39735;51.432;5.482;2023-07-31T08:31:07;14.13;;;4.18;;
53833;SDS011;39735;51.432;5.482;2023-07-31T08:33:33;11.27;;;4.32;;
53833;SDS011;39735;51.432;5.482;2023-07-31T08:35:58;5.07;;;3.38;;
53833;SDS011;39735;51.432;5.482;2023-07-31T08:38:25;8.10;;;4.65;;
53833;SDS011;39735;51.432;5.482;2023-07-31T08:40:51;7.68;;;3.80;;
53833;SDS011;39735;51.432;5.482;2023-07-31T08:43:16;12.48;;;3.65;;
53833;SDS011;39735;51.432;5.482;2023-07-31T08:45:41;11.68;;;4.03;;
53833;SDS011;39735;51.432;5.482;2023-07-31T08:48:07;8.07;;;4.03;;
53833;SDS011;39735;51.432;5.482;2023-07-31T08:50:32;14.75;;;7.50;;
53833;SDS011;39735;51.432;5.482;2023-07-31T08:52:58;8.55;;;4.03;;
53833;SDS011;39735;51.432;5.482;2023-07-31T08:55:23;18.10;;;4.50;;
53833;SDS011;39735;51.432;5.482;2023-07-31T08:57:50;16.60;;;5.07;;
53833;SDS011;39735;51.432;5.482;2023-07-31T09:00:16;15.82;;;4.25;;
53833;SDS011;39735;51.432;5.482;2023-07-31T09:02:44;7.25;;;4.22;;
53833;SDS011;39735;51.432;5.482;2023-07-31T09:05:10;18.42;;;4.72;;
53833;SDS011;39735;51.432;5.482;2023-07-31T09:07:36;9.45;;;5.00;;
53833;SDS011;39735;51.432;5.482;2023-07-31T09:10:02;21.15;;;5.22;;
53833;SDS011;39735;51.432;5.482;2023-07-31T09:12:27;14.00;;;5.13;;
53833;SDS011;39735;51.432;5.482;2023-07-31T09:14:53;13.13;;;4.72;;
53833;SDS011;39735;51.432;5.482;2023-07-31T09:17:28;20.50;;;5.53;;
53833;SDS011;39735;51.432;5.482;2023-07-31T09:19:53;14.55;;;6.25;;
53833;SDS011;39735;51.432;5.482;2023-07-31T09:22:20;7.43;;;4.77;;
53833;SDS011;39735;51.432;5.482;2023-07-31T09:24:55;11.88;;;4.78;;
53833;SDS011;39735;51.432;5.482;2023-07-31T09:27:21;8.93;;;3.87;;
53833;SDS011;39735;51.432;5.482;2023-07-31T09:29:46;21.20;;;4.63;;
53833;SDS011;39735;51.432;5.482;2023-07-31T09:32:23;12.25;;;4.10;;
53833;SDS011;39735;51.432;5.482;2023-07-31T09:34:49;11.80;;;4.40;;
53833;SDS011;39735;51.432;5.482;2023-07-31T09:37:15;7.15;;;4.05;;
53833;SDS011;39735;51.432;5.482;2023-07-31T09:39:46;13.07;;;4.35;;
53833;SDS011;39735;51.432;5.482;2023-07-31T09:42:12;8.27;;;3.92;;
53833;SDS011;39735;51.432;5.482;2023-07-31T09:44:38;17.47;;;5.90;;
53833;SDS011;39735;51.432;5.482;2023-07-31T09:47:04;9.48;;;4.13;;
53833;SDS011;39735;51.432;5.482;2023-07-31T09:49:30;10.05;;;4.10;;
53833;SDS011;39735;51.432;5.482;2023-07-31T09:51:55;7.50;;;3.77;;
53833;SDS011;39735;51.432;5.482;2023-07-31T09:54:20;16.40;;;3.50;;
53833;SDS011;39735;51.432;5.482;2023-07-31T09:56:47;6.85;;;3.28;;
53833;SDS011;39735;51.432;5.482;2023-07-31T09:59:14;8.55;;;4.03;;
53833;SDS011;39735;51.432;5.482;2023-07-31T10:01:40;6.07;;;4.90;;
53833;SDS011;39735;51.432;5.482;2023-07-31T10:04:07;15.77;;;4.85;;
53833;SDS011;39735;51.432;5.482;2023-07-31T10:06:33;22.30;;;4.72;;
53833;SDS011;39735;51.432;5.482;2023-07-31T10:08:59;10.52;;;3.95;;
53833;SDS011;39735;51.432;5.482;2023-07-31T10:11:25;14.07;;;3.92;;
53833;SDS011;39735;51.432;5.482;2023-07-31T10:13:52;6.07;;;3.15;;
53833;SDS011;39735;51.432;5.482;2023-07-31T10:16:18;10.75;;;4.32;;
53833;SDS011;39735;51.432;5.482;2023-07-31T10:18:45;6.70;;;3.58;;
53833;SDS011;39735;51.432;5.482;2023-07-31T10:21:11;15.98;;;5.03;;
53833;SDS011;39735;51.432;5.482;2023-07-31T10:23:36;7.50;;;3.97;;
53833;SDS011;39735;51.432;5.482;2023-07-31T10:26:01;7.55;;;4.20;;
53833;SDS011;39735;51.432;5.482;2023-07-31T10:28:27;7.80;;;4.15;;
53833;SDS011;39735;51.432;5.482;2023-07-31T10:30:54;7.53;;;3.33;;
53833;SDS011;39735;51.432;5.482;2023-07-31T10:33:19;7.47;;;3.90;;
53833;SDS011;39735;51.432;5.482;2023-07-31T10:35:46;8.93;;;3.63;;
53833;SDS011;39735;51.432;5.482;2023-07-31T10:38:12;21.63;;;4.93;;
53833;SDS011;39735;51.432;5.482;2023-07-31T10:40:37;5.95;;;4.15;;
53833;SDS011;39735;51.432;5.482;2023-07-31T10:43:03;11.70;;;3.95;;
53833;SDS011;39735;51.432;5.482;2023-07-31T10:45:32;16.48;;;4.20;;
53833;SDS011;39735;51.432;5.482;2023-07-31T10:47:58;4.70;;;2.88;;
53833;SDS011;39735;51.432;5.482;2023-07-31T10:50:25;17.13;;;4.93;;
53833;SDS011;39735;51.432;5.482;2023-07-31T10:52:51;11.00;;;3.13;;
53833;SDS011;39735;51.432;5.482;2023-07-31T10:55:30;8.32;;;3.88;;
53833;SDS011;39735;51.432;5.482;2023-07-31T10:57:56;12.50;;;4.72;;
53833;SDS011;39735;51.432;5.482;2023-07-31T11:00:25;8.38;;;2.90;;
53833;SDS011;39735;51.432;5.482;2023-07-31T11:03:10;8.50;;;4.68;;
53833;SDS011;39735;51.432;5.482;2023-07-31T11:05:52;5.43;;;3.47;;
53833;SDS011;39735;51.432;5.482;2023-07-31T11:10:46;15.00;;;5.67;;
53833;SDS011;39735;51.432;5.482;2023-07-31T11:13:12;14.27;;;4.93;;
53833;SDS011;39735;51.432;5.482;2023-07-31T11:15:37;7.50;;;4.40;;
53833;SDS011;39735;51.432;5.482;2023-07-31T11:18:03;7.63;;;4.72;;
53833;SDS011;39735;51.432;5.482;2023-07-31T11:20:32;10.85;;;3.40;;
53833;SDS011;39735;51.432;5.482;2023-07-31T11:23:05;16.80;;;3.50;;
53833;SDS011;39735;51.432;5.482;2023-07-31T11:25:31;19.65;;;5.45;;
53833;SDS011;39735;51.432;5.482;2023-07-31T11:27:57;4.95;;;3.35;;
53833;SDS011;39735;51.432;5.482;2023-07-31T11:30:22;18.65;;;3.72;;
53833;SDS011;39735;51.432;5.482;2023-07-31T11:32:48;15.20;;;3.83;;
53833;SDS011;39735;51.432;5.482;2023-07-31T11:35:14;11.05;;;4.55;;
53833;SDS011;39735;51.432;5.482;2023-07-31T11:37:42;6.50;;;3.97;;
53833;SDS011;39735;51.432;5.482;2023-07-31T11:40:08;6.97;;;4.25;;
53833;SDS011;39735;51.432;5.482;2023-07-31T11:42:37;9.43;;;3.92;;
53833;SDS011;39735;51.432;5.482;2023-07-31T11:45:05;6.95;;;3.28;;
53833;SDS011;39735;51.432;5.482;2023-07-31T11:47:34;2.17;;;2.03;;
53833;SDS011;39735;51.432;5.482;2023-07-31T11:50:00;3.92;;;3.03;;
53833;SDS011;39735;51.432;5.482;2023-07-31T11:52:26;5.43;;;3.42;;
53833;SDS011;39735;51.432;5.482;2023-07-31T11:54:52;7.10;;;3.70;;
53833;SDS011;39735;51.432;5.482;2023-07-31T11:57:18;5.45;;;2.65;;
53833;SDS011;39735;51.432;5.482;2023-07-31T11:59:43;12.35;;;3.40;;
53833;SDS011;39735;51.432;5.482;2023-07-31T12:02:08;9.85;;;3.15;;
53833;SDS011;39735;51.432;5.482;2023-07-31T12:04:34;5.65;;;3.38;;
53833;SDS011;39735;51.432;5.482;2023-07-31T12:07:00;5.78;;;3.13;;
53833;SDS011;39735;51.432;5.482;2023-07-31T12:09:25;16.25;;;3.95;;
53833;SDS011;39735;51.432;5.482;2023-07-31T12:11:51;7.20;;;3.13;;
53833;SDS011;39735;51.432;5.482;2023-07-31T12:16:45;7.18;;;3.75;;
53833;SDS011;39735;51.432;5.482;2023-07-31T12:19:10;11.32;;;3.55;;
53833;SDS011;39735;51.432;5.482;2023-07-31T12:21:35;3.70;;;3.35;;
53833;SDS011;39735;51.432;5.482;2023-07-31T12:24:02;14.25;;;4.97;;
53833;SDS011;39735;51.432;5.482;2023-07-31T12:26:33;7.63;;;3.90;;
53833;SDS011;39735;51.432;5.482;2023-07-31T12:28:58;7.93;;;3.03;;
53833;SDS011;39735;51.432;5.482;2023-07-31T12:31:23;14.13;;;5.53;;
53833;SDS011;39735;51.432;5.482;2023-07-31T12:33:52;12.85;;;7.75;;
53833;SDS011;39735;51.432;5.482;2023-07-31T12:36:21;13.43;;;3.90;;
53833;SDS011;39735;51.432;5.482;2023-07-31T12:38:46;12.70;;;4.90;;
53833;SDS011;39735;51.432;5.482;2023-07-31T12:41:12;9.25;;;4.90;;
53833;SDS011;39735;51.432;5.482;2023-07-31T12:43:39;11.88;;;4.30;;
53833;SDS011;39735;51.432;5.482;2023-07-31T12:46:04;15.05;;;4.90;;
53833;SDS011;39735;51.432;5.482;2023-07-31T12:48:30;12.10;;;4.05;;
53833;SDS011;39735;51.432;5.482;2023-07-31T12:50:56;18.38;;;5.15;;
53833;SDS011;39735;51.432;5.482;2023-07-31T12:53:21;13.43;;;5.50;;
53833;SDS011;39735;51.432;5.482;2023-07-31T12:55:46;23.52;;;6.63;;
53833;SDS011;39735;51.432;5.482;2023-07-31T12:58:12;16.10;;;6.25;;
53833;SDS011;39735;51.432;5.482;2023-07-31T13:00:37;9.68;;;6.22;;
53833;SDS011;39735;51.432;5.482;2023-07-31T13:03:03;6.55;;;4.93;;
53833;SDS011;39735;51.432;5.482;2023-07-31T13:05:28;28.33;;;6.22;;
53833;SDS011;39735;51.432;5.482;2023-07-31T13:07:54;17.00;;;6.65;;
53833;SDS011;39735;51.432;5.482;2023-07-31T13:10:19;22.27;;;5.35;;
53833;SDS011;39735;51.432;5.482;2023-07-31T13:12:45;16.67;;;6.15;;
53833;SDS011;39735;51.432;5.482;2023-07-31T13:15:10;11.20;;;5.38;;
53833;SDS011;39735;51.432;5.482;2023-07-31T13:17:35;9.13;;;5.40;;
53833;SDS011;39735;51.432;5.482;2023-07-31T13:20:01;18.08;;;5.93;;
53833;SDS011;39735;51.432;5.482;2023-07-31T13:22:26;10.95;;;5.47;;
53833;SDS011;39735;51.432;5.482;2023-07-31T13:24:53;48.13;;;7.13;;
53833;SDS011;39735;51.432;5.482;2023-07-31T13:27:18;21.10;;;7.03;;
53833;SDS011;39735;51.432;5.482;2023-07-31T13:29:46;19.88;;;8.75;;
53833;SDS011;39735;51.432;5.482;2023-07-31T13:32:11;16.67;;;5.85;;
53833;SDS011;39735;51.432;5.482;2023-07-31T13:34:37;16.98;;;5.82;;
53833;SDS011;39735;51.432;5.482;2023-07-31T13:37:02;15.60;;;6.30;;
53833;SDS011;39735;51.432;5.482;2023-07-31T13:39:27;26.95;;;8.10;;
53833;SDS011;39735;51.432;5.482;2023-07-31T13:41:53;19.20;;;6.78;;
53833;SDS011;39735;51.432;5.482;2023-07-31T13:44:18;19.00;;;6.38;;
53833;SDS011;39735;51.432;5.482;2023-07-31T13:46:43;18.83;;;6.50;;
53833;SDS011;39735;51.432;5.482;2023-07-31T13:49:09;15.27;;;5.90;;
53833;SDS011;39735;51.432;5.482;2023-07-31T13:51:34;19.77;;;6.05;;
53833;SDS011;39735;51.432;5.482;2023-07-31T13:53:59;14.77;;;5.25;;
53833;SDS011;39735;51.432;5.482;2023-07-31T13:56:24;17.05;;;6.40;;
53833;SDS011;39735;51.432;5.482;2023-07-31T13:58:50;17.00;;;5.15;;
53833;SDS011;39735;51.432;5.482;2023-07-31T14:01:15;20.92;;;7.68;;
53833;SDS011;39735;51.432;5.482;2023-07-31T14:03:40;19.73;;;6.63;;
53833;SDS011;39735;51.432;5.482;2023-07-31T14:06:05;30.33;;;5.77;;
53833;SDS011;39735;51.432;5.482;2023-07-31T14:08:31;18.27;;;5.68;;
53833;SDS011;39735;51.432;5.482;2023-07-31T14:10:56;25.57;;;7.20;;
53833;SDS011;39735;51.432;5.482;2023-07-31T14:13:21;15.30;;;7.20;;
53833;SDS011;39735;51.432;5.482;2023-07-31T14:15:46;19.00;;;6.18;;
53833;SDS011;39735;51.432;5.482;2023-07-31T14:18:12;18.00;;;8.55;;
53833;SDS011;39735;51.432;5.482;2023-07-31T14:20:37;12.93;;;6.33;;
53833;SDS011;39735;51.432;5.482;2023-07-31T14:23:02;18.35;;;6.30;;
53833;SDS011;39735;51.432;5.482;2023-07-31T14:25:28;14.13;;;6.38;;
53833;SDS011;39735;51.432;5.482;2023-07-31T14:27:53;15.93;;;6.27;;
53833;SDS011;39735;51.432;5.482;2023-07-31T14:30:18;13.60;;;5.60;;
53833;SDS011;39735;51.432;5.482;2023-07-31T14:32:44;31.30;;;7.57;;
53833;SDS011;39735;51.432;5.482;2023-07-31T14:35:09;12.60;;;4.90;;
53833;SDS011;39735;51.432;5.482;2023-07-31T14:37:41;10.77;;;5.00;;
53833;SDS011;39735;51.432;5.482;2023-07-31T14:40:07;13.60;;;6.97;;
53833;SDS011;39735;51.432;5.482;2023-07-31T14:42:33;9.55;;;5.07;;